Desert Spring — V7XQ8 — position and weather

sailwx.info

Track history (hours):
 
Tides and Currents Weather Stations Pressure Air Temp Water Temp Dewpoint Dewpoint Depression Visibility Wind Speed Wind Dir Waves Ship Positions

Desert Spring

Last reported at 2014-Oct-08 12:32 UTC. Time now 2014-Oct-31 14:28 UTC.
Position N 46°04' W 001°59'.
Warning: this ship's position is 23 days out of date.

Length 193 m; draft 9.7 m.

Type: Cargo ship. MMSI: 538004547.

Date/timePositionNaut miles runAvg speedWind from/ knotsBaromVisibWave heightAir tempDewpointWater temp
2014-Oct-08 12:32N 46°04' W 001°59'9 9.6
2014-Oct-08 11:33N 46°07' W 001°46'10 9.4
2014-Oct-08 10:31N 46°07' W 001°32'  
2014-Oct-06 02:33N 46°07' W 001°32'10 8.5
2014-Oct-06 01:24N 46°09' W 001°45'1112.2
2014-Oct-06 00:32N 46°14' W 001°59'1212.2
2014-Oct-05 23:33N 46°20' W 002°13'1 1.0
2014-Oct-05 22:33N 46°20' W 002°15'1211.8
2014-Oct-05 21:33N 46°27' W 002°28'256 6.7
2014-Oct-04 07:20N 50°28' W 000°19'2111.3
2014-Oct-04 05:30N 50°34' E 000°13'1011.0
2014-Oct-04 04:33N 50°37' E 000°28'1111.2
2014-Oct-04 03:33N 50°41' E 000°44'1412.3
2014-Oct-04 02:25N 50°50' E 001°01'1213.4
2014-Oct-04 01:31N 50°58' E 001°16'1313.9
2014-Oct-04 00:33N 51°07' E 001°32'1313.1
2014-Oct-03 23:34N 51°16' E 001°47'1211.5
2014-Oct-03 22:33N 51°26' E 001°55'1110.9
2014-Oct-03 21:33N 51°35' E 002°05'1110.9
2014-Oct-03 20:33N 51°43' E 002°17'1111.0
2014-Oct-03 19:33N 51°51' E 002°30'1211.6
2014-Oct-03 18:33N 51°59' E 002°42'7912.1
2014-Oct-03 12:05N 53°14' E 003°25'711.2
2014-Oct-03 11:30N 53°20' E 003°28'5410.9
2014-Oct-03 06:32N 54°05' E 004°19'1212.0
2014-Oct-03 05:32N 54°16' E 004°28'1211.9
2014-Oct-03 04:33N 54°26' E 004°37'17211.9
2014-Oct-02 14:05N 56°53' E 007°16'3011.7
2014-Oct-02 11:32N 57°16' E 007°52'1211.9
2014-Oct-02 10:33N 57°22' E 008°11'1212.0
2014-Oct-02 09:33N 57°28' E 008°30'1211.9
2014-Oct-02 08:33N 57°35' E 008°49'1111.2
2014-Oct-02 07:32N 57°39' E 009°08'1111.3
2014-Oct-02 06:33N 57°41' E 009°29'1211.7
2014-Oct-02 05:32N 57°44' E 009°50'1211.7
2014-Oct-02 04:33N 57°46' E 010°12'1212.1
2014-Oct-02 03:33N 57°48' E 010°34'1110.8
2014-Oct-02 02:33N 57°45' E 010°53'1313.2
2014-Oct-02 01:33N 57°36' E 011°11'1212.4
2014-Oct-02 00:33N 57°27' E 011°28'1312.5
2014-Oct-01 23:33N 57°15' E 011°35'1212.1
2014-Oct-01 22:33N 57°04' E 011°43'1212.1
2014-Oct-01 21:33N 56°52' E 011°50'1110.4
2014-Oct-01 20:33N 56°42' E 011°49'3711.5
2014-Oct-01 17:18N 56°13' E 011°06'9313.2
2014-Oct-01 10:15N 54°40' E 010°58'913.2
2014-Oct-01 09:33N 54°36' E 011°12'1312.9
2014-Oct-01 08:33N 54°30' E 011°32'1313.0
2014-Oct-01 07:34N 54°24' E 011°51'1212.0
2014-Oct-01 06:33N 54°14' E 012°04'5 5.5
2014-Oct-01 05:33N 54°09' E 012°07'0 0.0
2014-Oct-01 02:29N 54°09' E 012°07'0 0.0
2014-Oct-01 01:17N 54°09' E 012°07'0 0.0
2014-Sep-30 22:11N 54°09' E 012°07'0 0.0
2014-Sep-30 20:29N 54°09' E 012°07'0 0.0
2014-Sep-30 18:32N 54°09' E 012°07'0 0.0
2014-Sep-30 17:29N 54°09' E 012°07'0 0.0
2014-Sep-30 16:14N 54°09' E 012°07'0 0.0
2014-Sep-30 15:29N 54°09' E 012°07'0 0.0
2014-Sep-30 14:29N 54°09' E 012°07'0 0.0
2014-Sep-30 13:23N 54°09' E 012°07'0 0.0
2014-Sep-30 12:23N 54°09' E 012°07'0 0.0
2014-Sep-30 11:32N 54°09' E 012°07'0 0.0
2014-Sep-30 10:32N 54°09' E 012°07'0 0.0
2014-Sep-30 09:26N 54°09' E 012°07'0 0.0
2014-Sep-30 08:23N 54°09' E 012°07'0 0.0
2014-Sep-30 07:18N 54°09' E 012°07'0 0.0
2014-Sep-30 06:32N 54°09' E 012°07'0 0.0
2014-Sep-30 05:32N 54°09' E 012°07'0 0.0
2014-Sep-30 04:32N 54°09' E 012°07'0 0.0
2014-Sep-30 03:29N 54°09' E 012°07'0 0.0
2014-Sep-30 02:26N 54°09' E 012°07'0 0.0
2014-Sep-30 01:32N 54°09' E 012°07'0 0.0
2014-Sep-30 00:32N 54°09' E 012°07'0 0.0
2014-Sep-29 23:32N 54°09' E 012°07'0 0.0
2014-Sep-29 22:32N 54°09' E 012°07'0 0.0
2014-Sep-29 21:32N 54°09' E 012°07'0 0.0
2014-Sep-29 20:32N 54°09' E 012°07'0 0.0
2014-Sep-29 19:29N 54°09' E 012°07'0 0.0
2014-Sep-29 18:32N 54°09' E 012°07'0 0.0
2014-Sep-29 17:26N 54°09' E 012°07'0 0.0
2014-Sep-29 16:26N 54°09' E 012°07'0 0.0
2014-Sep-29 15:32N 54°09' E 012°07'0 0.0
2014-Sep-29 14:20N 54°09' E 012°07'0 0.0
2014-Sep-29 13:32N 54°09' E 012°07'0 0.0
2014-Sep-29 12:14N 54°09' E 012°07'0 0.0
2014-Sep-29 11:26N 54°09' E 012°07'0 0.0
2014-Sep-29 10:32N 54°09' E 012°07'0 0.0
2014-Sep-29 09:32N 54°09' E 012°07'0 0.0
2014-Sep-29 08:26N 54°09' E 012°07'0 0.0
2014-Sep-29 07:32N 54°09' E 012°07'0 0.0
2014-Sep-29 06:29N 54°09' E 012°07'0 0.0
2014-Sep-29 05:26N 54°09' E 012°07'0 0.0
2014-Sep-29 04:32N 54°09' E 012°07'0 0.0
2014-Sep-29 03:29N 54°09' E 012°07'0 0.0
2014-Sep-29 02:26N 54°09' E 012°07'0 0.0
2014-Sep-29 01:32N 54°09' E 012°07'0 0.0
2014-Sep-29 00:11N 54°09' E 012°07'0 0.0
2014-Sep-28 22:32N 54°09' E 012°07'0 0.0
2014-Sep-28 21:23N 54°09' E 012°07'0 0.0
2014-Sep-28 20:11N 54°09' E 012°07'0 0.0
2014-Sep-28 18:08N 54°09' E 012°07'0 0.0
2014-Sep-28 17:23N 54°09' E 012°07'0 0.0
2014-Sep-28 16:29N 54°09' E 012°07'0 0.0
2014-Sep-28 15:32N 54°09' E 012°07'0 0.0
2014-Sep-28 14:32N 54°09' E 012°07'0 0.0
2014-Sep-28 13:32N 54°09' E 012°07'  
Track history (hours):
 
Tides and Currents Weather Stations Pressure Air Temp Water Temp Dewpoint Dewpoint Depression Visibility Wind Speed Wind Dir Waves Ship Positions

Desert Spring

Last reported at 2014-Oct-08 12:32 UTC. Time now 2014-Oct-31 14:28 UTC.
Position N 46°04' W 001°59'.
Warning: this ship's position is 23 days out of date.

Length 193 m; draft 9.7 m.

Type: Cargo ship. MMSI: 538004547.

Date/timePositionNaut miles runAvg speedWind from/ knotsBaromVisibWave heightAir tempDewpointWater temp
2014-Oct-08 12:32N 46°04' W 001°59'9 9.6
2014-Oct-08 11:33N 46°07' W 001°46'10 9.4
2014-Oct-08 10:31N 46°07' W 001°32'  
2014-Oct-06 02:33N 46°07' W 001°32'10 8.5
2014-Oct-06 01:24N 46°09' W 001°45'1112.2
2014-Oct-06 00:32N 46°14' W 001°59'1212.2
2014-Oct-05 23:33N 46°20' W 002°13'1 1.0
2014-Oct-05 22:33N 46°20' W 002°15'1211.8
2014-Oct-05 21:33N 46°27' W 002°28'256 6.7
2014-Oct-04 07:20N 50°28' W 000°19'2111.3
2014-Oct-04 05:30N 50°34' E 000°13'1011.0
2014-Oct-04 04:33N 50°37' E 000°28'1111.2
2014-Oct-04 03:33N 50°41' E 000°44'1412.3
2014-Oct-04 02:25N 50°50' E 001°01'1213.4
2014-Oct-04 01:31N 50°58' E 001°16'1313.9
2014-Oct-04 00:33N 51°07' E 001°32'1313.1
2014-Oct-03 23:34N 51°16' E 001°47'1211.5
2014-Oct-03 22:33N 51°26' E 001°55'1110.9
2014-Oct-03 21:33N 51°35' E 002°05'1110.9
2014-Oct-03 20:33N 51°43' E 002°17'1111.0
2014-Oct-03 19:33N 51°51' E 002°30'1211.6
2014-Oct-03 18:33N 51°59' E 002°42'7912.1
2014-Oct-03 12:05N 53°14' E 003°25'711.2
2014-Oct-03 11:30N 53°20' E 003°28'5410.9
2014-Oct-03 06:32N 54°05' E 004°19'1212.0
2014-Oct-03 05:32N 54°16' E 004°28'1211.9
2014-Oct-03 04:33N 54°26' E 004°37'17211.9
2014-Oct-02 14:05N 56°53' E 007°16'3011.7
2014-Oct-02 11:32N 57°16' E 007°52'1211.9
2014-Oct-02 10:33N 57°22' E 008°11'1212.0
2014-Oct-02 09:33N 57°28' E 008°30'1211.9
2014-Oct-02 08:33N 57°35' E 008°49'1111.2
2014-Oct-02 07:32N 57°39' E 009°08'1111.3
2014-Oct-02 06:33N 57°41' E 009°29'1211.7
2014-Oct-02 05:32N 57°44' E 009°50'1211.7
2014-Oct-02 04:33N 57°46' E 010°12'1212.1
2014-Oct-02 03:33N 57°48' E 010°34'1110.8
2014-Oct-02 02:33N 57°45' E 010°53'1313.2
2014-Oct-02 01:33N 57°36' E 011°11'1212.4
2014-Oct-02 00:33N 57°27' E 011°28'1312.5
2014-Oct-01 23:33N 57°15' E 011°35'1212.1
2014-Oct-01 22:33N 57°04' E 011°43'1212.1
2014-Oct-01 21:33N 56°52' E 011°50'1110.4
2014-Oct-01 20:33N 56°42' E 011°49'3711.5
2014-Oct-01 17:18N 56°13' E 011°06'9313.2
2014-Oct-01 10:15N 54°40' E 010°58'913.2
2014-Oct-01 09:33N 54°36' E 011°12'1312.9
2014-Oct-01 08:33N 54°30' E 011°32'1313.0
2014-Oct-01 07:34N 54°24' E 011°51'1212.0
2014-Oct-01 06:33N 54°14' E 012°04'5 5.5
2014-Oct-01 05:33N 54°09' E 012°07'0 0.0
2014-Oct-01 02:29N 54°09' E 012°07'0 0.0
2014-Oct-01 01:17N 54°09' E 012°07'0 0.0
2014-Sep-30 22:11N 54°09' E 012°07'0 0.0
2014-Sep-30 20:29N 54°09' E 012°07'0 0.0
2014-Sep-30 18:32N 54°09' E 012°07'0 0.0
2014-Sep-30 17:29N 54°09' E 012°07'0 0.0
2014-Sep-30 16:14N 54°09' E 012°07'0 0.0
2014-Sep-30 15:29N 54°09' E 012°07'0 0.0
2014-Sep-30 14:29N 54°09' E 012°07'0 0.0
2014-Sep-30 13:23N 54°09' E 012°07'0 0.0
2014-Sep-30 12:23N 54°09' E 012°07'0 0.0
2014-Sep-30 11:32N 54°09' E 012°07'0 0.0
2014-Sep-30 10:32N 54°09' E 012°07'0 0.0
2014-Sep-30 09:26N 54°09' E 012°07'0 0.0
2014-Sep-30 08:23N 54°09' E 012°07'0 0.0
2014-Sep-30 07:18N 54°09' E 012°07'0 0.0
2014-Sep-30 06:32N 54°09' E 012°07'0 0.0
2014-Sep-30 05:32N 54°09' E 012°07'0 0.0
2014-Sep-30 04:32N 54°09' E 012°07'0 0.0
2014-Sep-30 03:29N 54°09' E 012°07'0 0.0
2014-Sep-30 02:26N 54°09' E 012°07'0 0.0
2014-Sep-30 01:32N 54°09' E 012°07'0 0.0
2014-Sep-30 00:32N 54°09' E 012°07'0 0.0
2014-Sep-29 23:32N 54°09' E 012°07'0 0.0
2014-Sep-29 22:32N 54°09' E 012°07'0 0.0
2014-Sep-29 21:32N 54°09' E 012°07'0 0.0
2014-Sep-29 20:32N 54°09' E 012°07'0 0.0
2014-Sep-29 19:29N 54°09' E 012°07'0 0.0
2014-Sep-29 18:32N 54°09' E 012°07'0 0.0
2014-Sep-29 17:26N 54°09' E 012°07'0 0.0
2014-Sep-29 16:26N 54°09' E 012°07'0 0.0
2014-Sep-29 15:32N 54°09' E 012°07'0 0.0
2014-Sep-29 14:20N 54°09' E 012°07'0 0.0
2014-Sep-29 13:32N 54°09' E 012°07'0 0.0
2014-Sep-29 12:14N 54°09' E 012°07'0 0.0
2014-Sep-29 11:26N 54°09' E 012°07'0 0.0
2014-Sep-29 10:32N 54°09' E 012°07'0 0.0
2014-Sep-29 09:32N 54°09' E 012°07'0 0.0
2014-Sep-29 08:26N 54°09' E 012°07'0 0.0
2014-Sep-29 07:32N 54°09' E 012°07'0 0.0
2014-Sep-29 06:29N 54°09' E 012°07'0 0.0
2014-Sep-29 05:26N 54°09' E 012°07'0 0.0
2014-Sep-29 04:32N 54°09' E 012°07'0 0.0
2014-Sep-29 03:29N 54°09' E 012°07'0 0.0
2014-Sep-29 02:26N 54°09' E 012°07'0 0.0
2014-Sep-29 01:32N 54°09' E 012°07'0 0.0
2014-Sep-29 00:11N 54°09' E 012°07'0 0.0
2014-Sep-28 22:32N 54°09' E 012°07'0 0.0
2014-Sep-28 21:23N 54°09' E 012°07'0 0.0
2014-Sep-28 20:11N 54°09' E 012°07'0 0.0
2014-Sep-28 18:08N 54°09' E 012°07'0 0.0
2014-Sep-28 17:23N 54°09' E 012°07'0 0.0
2014-Sep-28 16:29N 54°09' E 012°07'0 0.0
2014-Sep-28 15:32N 54°09' E 012°07'0 0.0
2014-Sep-28 14:32N 54°09' E 012°07'0 0.0
2014-Sep-28 13:32N 54°09' E 012°07'  

Dump ship's entire track history